createdAt,value
2022-10-28T00:00:38.414Z,101337.37
2022-10-28T00:03:11.104Z,101338.84
2022-10-28T00:05:43.519Z,101340.57
2022-10-28T00:08:17.284Z,101336.97
2022-10-28T00:10:50.648Z,101336.36
2022-10-28T00:13:23.320Z,101338.61
2022-10-28T00:15:55.778Z,101340.45
2022-10-28T00:18:30.780Z,101348.37
2022-10-28T00:21:12.424Z,101338.96
2022-10-28T00:23:46.140Z,101334.59
2022-10-28T00:26:24.752Z,101347.61
2022-10-28T00:28:59.755Z,101343.89
2022-10-28T00:31:33.077Z,101343.41
2022-10-28T00:34:07.150Z,101344.89
2022-10-28T00:36:41.754Z,101342.77
2022-10-28T00:39:20.029Z,101340.44
2022-10-28T00:41:56.293Z,101345.25
2022-10-28T00:44:57.125Z,101348.97
2022-10-28T00:47:40.684Z,101354.41
2022-10-28T00:50:23.483Z,101347.84
2022-10-28T00:53:00.117Z,101347.23
2022-10-28T00:55:32.588Z,101351.03
2022-10-28T00:58:06.607Z,101353.75
2022-10-28T01:00:39.177Z,101351.03
2022-10-28T01:03:11.708Z,101351.55
2022-10-28T01:05:47.652Z,101357.48
2022-10-28T01:08:20.199Z,101346.22
2022-10-28T01:11:36.616Z,101352.27
2022-10-28T01:14:37.725Z,101350.66
2022-10-28T01:17:41.826Z,101353.86
2022-10-28T01:20:34.956Z,101349.17
2022-10-28T01:23:19.396Z,101350.12
2022-10-28T01:26:17.599Z,101355.45
2022-10-28T01:29:12.492Z,101350.64
2022-10-28T01:32:20.395Z,101357.45
2022-10-28T01:35:17.115Z,101351.61
2022-10-28T01:38:30.807Z,101349.13
2022-10-28T01:41:16.223Z,101352.84
2022-10-28T01:43:53.596Z,101351.11
2022-10-28T01:46:30.131Z,101352.47
2022-10-28T01:49:12.802Z,101345.79
2022-10-28T01:51:49.033Z,101353.72
2022-10-28T01:54:25.340Z,101353.20
2022-10-28T01:56:57.781Z,101351.96
2022-10-28T01:59:31.572Z,101355.33
2022-10-28T02:02:04.185Z,101356.82
2022-10-28T02:04:36.837Z,101359.94
2022-10-28T02:07:09.259Z,101359.78
2022-10-28T02:10:13.761Z,101355.59
2022-10-28T02:12:46.197Z,101352.75
2022-10-28T02:15:45.086Z,101348.78
2022-10-28T02:18:56.889Z,101344.82
2022-10-28T02:21:40.002Z,101341.25
2022-10-28T02:24:22.955Z,101343.61
2022-10-28T02:27:00.176Z,101342.73
2022-10-28T02:29:44.985Z,101344.57
2022-10-28T02:32:21.234Z,101344.69
2022-10-28T02:34:56.537Z,101352.01
2022-10-28T02:37:32.466Z,101340.73
2022-10-28T02:40:07.982Z,101347.53
2022-10-28T02:42:50.562Z,101345.05
2022-10-28T02:45:28.174Z,101344.55
2022-10-28T02:48:05.691Z,101346.85
2022-10-28T02:50:41.145Z,101343.77
2022-10-28T02:53:20.740Z,101349.97
2022-10-28T02:55:55.973Z,101354.66
2022-10-28T02:58:29.089Z,101349.98
2022-10-28T03:01:01.859Z,101352.83
2022-10-28T03:03:34.766Z,101346.50
2022-10-28T03:06:07.399Z,101344.78
2022-10-28T03:08:41.104Z,101346.73
2022-10-28T03:11:14.912Z,101346.14
2022-10-28T03:13:47.516Z,101343.53
2022-10-28T03:16:20.041Z,101345.66
2022-10-28T03:18:52.478Z,101342.06
2022-10-28T03:21:26.586Z,101344.18
2022-10-28T03:23:59.054Z,101341.83
2022-10-28T03:26:31.567Z,101340.10
2022-10-28T03:29:04.649Z,101342.66
2022-10-28T03:31:38.112Z,101345.49
2022-10-28T03:34:10.790Z,101343.28
2022-10-28T03:36:43.473Z,101342.29
2022-10-28T03:39:16.355Z,101344.64
2022-10-28T03:41:49.027Z,101346.01
2022-10-28T03:44:21.604Z,101341.53
2022-10-28T03:46:54.666Z,101346.23
2022-10-28T03:49:27.415Z,101342.27
2022-10-28T03:51:59.921Z,101348.08
2022-10-28T03:54:32.742Z,101339.78
2022-10-28T03:57:05.081Z,101337.05
2022-10-28T03:59:38.200Z,101341.95
2022-10-28T04:02:10.758Z,101335.73
2022-10-28T04:04:45.087Z,101333.75
2022-10-28T04:07:17.420Z,101330.78
2022-10-28T04:09:51.654Z,101334.80
2022-10-28T04:12:24.582Z,101337.75
2022-10-28T04:14:57.043Z,101328.01
2022-10-28T04:17:30.310Z,101334.34
2022-10-28T04:20:02.935Z,101333.35
2022-10-28T04:22:35.621Z,101336.61
2022-10-28T04:25:08.979Z,101340.09
2022-10-28T04:27:41.397Z,101337.98
2022-10-28T04:30:14.596Z,101339.23
2022-10-28T04:32:47.236Z,101332.80
2022-10-28T04:35:20.253Z,101335.52
2022-10-28T04:37:53.015Z,101335.67
2022-10-28T04:40:26.405Z,101343.54
2022-10-28T04:42:59.079Z,101340.69
2022-10-28T04:45:32.438Z,101330.92
2022-10-28T04:48:05.350Z,101330.41
2022-10-28T04:50:38.205Z,101338.45
2022-10-28T04:53:13.842Z,101334.91
2022-10-28T04:55:46.214Z,101336.77
2022-10-28T04:58:19.798Z,101335.92
2022-10-28T05:00:52.438Z,101342.20
2022-10-28T05:03:24.925Z,101341.36
2022-10-28T05:05:58.147Z,101344.92
2022-10-28T05:08:30.881Z,101344.44
2022-10-28T05:11:03.221Z,101346.80
2022-10-28T05:13:36.354Z,101346.03
2022-10-28T05:16:10.011Z,101347.39
2022-10-28T05:18:42.658Z,101351.72
2022-10-28T05:21:15.726Z,101352.37
2022-10-28T05:23:49.176Z,101351.28
2022-10-28T05:26:21.627Z,101356.66
2022-10-28T05:28:54.614Z,101359.14
2022-10-28T05:31:27.660Z,101359.88
2022-10-28T05:34:01.159Z,101362.70
2022-10-28T05:36:34.126Z,101364.95
2022-10-28T05:39:06.831Z,101361.59
2022-10-28T05:41:39.368Z,101365.08
2022-10-28T05:44:11.849Z,101359.39
2022-10-28T05:46:44.531Z,101361.23
2022-10-28T05:49:19.128Z,101361.59
2022-10-28T05:51:51.567Z,101356.42
2022-10-28T05:54:24.909Z,101361.71
2022-10-28T05:56:57.571Z,101364.31
2022-10-28T05:59:30.318Z,101367.80
2022-10-28T06:02:02.757Z,101372.89
2022-10-28T06:04:35.483Z,101378.34
2022-10-28T06:07:08.629Z,101374.38
2022-10-28T06:09:41.148Z,101380.52
2022-10-28T06:12:12.699Z,101378.55
2022-10-28T06:14:45.864Z,101371.23
2022-10-28T06:17:19.455Z,101382.77
2022-10-28T06:19:52.450Z,101385.48
2022-10-28T06:22:25.327Z,101388.45
2022-10-28T06:24:57.733Z,101387.61
2022-10-28T06:27:30.397Z,101388.22
2022-10-28T06:30:03.488Z,101390.11
2022-10-28T06:32:36.064Z,101394.98
2022-10-28T06:35:08.863Z,101395.84
2022-10-28T06:37:41.307Z,101396.11
2022-10-28T06:40:13.651Z,101394.00
2022-10-28T06:42:46.069Z,101391.56
2022-10-28T06:45:18.979Z,101393.53
2022-10-28T06:48:02.069Z,101397.27
2022-10-28T06:50:35.435Z,101391.47
2022-10-28T06:53:08.102Z,101390.11
2022-10-28T06:55:40.803Z,101395.20
2022-10-28T06:58:13.387Z,101390.36
2022-10-28T07:00:45.932Z,101393.72
2022-10-28T07:03:19.150Z,101387.91
2022-10-28T07:05:52.142Z,101389.77
2022-10-28T07:08:24.922Z,101396.13
2022-10-28T07:10:59.908Z,101396.48
2022-10-28T07:13:32.645Z,101391.80
2022-10-28T07:16:07.344Z,101384.62
2022-10-28T07:18:40.858Z,101388.47
2022-10-28T07:21:14.523Z,101382.54
2022-10-28T07:23:49.057Z,101378.83
2022-10-28T07:26:21.737Z,101380.80
2022-10-28T07:28:54.178Z,101374.58
2022-10-28T07:31:28.182Z,101379.48
2022-10-28T07:34:00.589Z,101367.94
2022-10-28T07:36:33.359Z,101368.92
2022-10-28T07:39:05.815Z,101364.55
2022-10-28T07:41:39.356Z,101369.50
2022-10-28T07:44:11.798Z,101365.89
2022-10-28T07:46:45.358Z,101367.61
2022-10-28T07:49:18.248Z,101370.12
2022-10-28T07:51:52.384Z,101367.52
2022-10-28T07:54:25.127Z,101369.13
2022-10-28T07:56:57.753Z,101367.52
2022-10-28T07:59:30.584Z,101365.28
2022-10-28T08:02:03.634Z,101368.86
2022-10-28T08:04:36.899Z,101367.48
2022-10-28T08:07:11.042Z,101370.84
2022-10-28T08:09:44.264Z,101359.89
2022-10-28T08:12:17.108Z,101361.06
2022-10-28T08:14:49.554Z,101364.04
2022-10-28T08:17:23.567Z,101355.30
2022-10-28T08:19:56.591Z,101357.69
2022-10-28T08:22:29.025Z,101357.05
2022-10-28T08:25:02.755Z,101357.87
2022-10-28T08:27:35.450Z,101362.71
2022-10-28T08:30:36.566Z,101359.33
2022-10-28T08:33:03.834Z,101367.28
2022-10-28T08:35:36.715Z,101362.98
2022-10-28T08:38:29.212Z,101361.47
2022-10-28T08:41:39.055Z,101364.48
2022-10-28T08:45:00.149Z,101366.13
2022-10-28T08:48:08.729Z,101372.09
2022-10-28T09:16:47.828Z,101349.30
2022-10-28T09:22:48.781Z,101347.91
2022-10-28T09:25:40.369Z,101344.84
2022-10-28T09:28:47.178Z,101346.05
2022-10-28T09:31:53.659Z,101343.78
2022-10-28T09:34:49.942Z,101340.34
2022-10-28T09:37:35.804Z,101345.41
2022-10-28T09:40:22.231Z,101333.16
2022-10-28T09:43:23.634Z,101334.69
2022-10-28T09:46:01.063Z,101330.75
2022-10-28T09:48:42.470Z,101321.80
2022-10-28T09:51:28.307Z,101325.55
2022-10-28T09:54:19.612Z,101321.93
2022-10-28T09:56:52.624Z,101325.52
2022-10-28T09:59:25.242Z,101318.02
2022-10-28T10:01:57.981Z,101314.98
2022-10-28T10:04:35.924Z,101317.09
2022-10-28T10:07:11.934Z,101316.53
2022-10-28T10:09:46.154Z,101312.45
2022-10-28T10:12:18.585Z,101315.28
2022-10-28T10:15:13.738Z,101308.81
2022-10-28T10:17:47.276Z,101305.08
2022-10-28T10:20:22.110Z,101306.17
2022-10-28T10:22:55.755Z,101298.98
2022-10-28T10:25:31.280Z,101297.63
2022-10-28T10:28:16.213Z,101296.94
2022-10-28T10:30:52.523Z,101294.48
2022-10-28T10:33:38.642Z,101296.36
2022-10-28T10:36:15.936Z,101291.78
2022-10-28T10:39:13.633Z,101296.09
2022-10-28T10:41:47.886Z,101291.09
2022-10-28T10:44:32.175Z,101286.45
2022-10-28T10:47:10.526Z,101285.58
2022-10-28T10:52:51.270Z,101280.58
2022-10-28T10:55:31.019Z,101282.45
2022-10-28T10:58:03.692Z,101284.73
2022-10-28T11:00:39.193Z,101274.77
2022-10-28T11:03:16.835Z,101274.77
2022-10-28T11:06:18.365Z,101276.70
2022-10-28T11:08:44.311Z,101271.68
2022-10-28T11:11:22.577Z,101271.02
2022-10-28T11:14:07.268Z,101271.45
2022-10-28T11:16:56.434Z,101265.27
2022-10-28T11:19:35.007Z,101264.91
2022-10-28T11:22:15.684Z,101264.78
2022-10-28T11:25:38.726Z,101265.68
2022-10-28T11:28:40.099Z,101252.00
2022-10-28T11:31:51.204Z,101251.47
2022-10-28T11:34:46.838Z,101253.78
2022-10-28T11:37:44.867Z,101242.84
2022-10-28T11:40:53.956Z,101254.16
2022-10-28T11:43:48.668Z,101245.81
2022-10-28T11:47:08.690Z,101235.03
2022-10-28T11:50:05.431Z,101233.17
2022-10-28T11:52:57.625Z,101235.46
2022-10-28T11:55:45.636Z,101235.60
2022-10-28T11:58:46.663Z,101230.53
2022-10-28T12:01:46.671Z,101227.13
2022-10-28T12:05:06.638Z,101227.31
2022-10-28T12:08:05.469Z,101227.11
2022-10-28T12:11:15.880Z,101230.58
2022-10-28T12:16:52.517Z,101233.34
2022-10-28T12:19:49.982Z,101220.80
2022-10-28T12:22:39.428Z,101225.84
2022-10-28T12:25:34.437Z,101229.87
2022-10-28T12:28:24.769Z,101221.77
2022-10-28T12:30:57.574Z,101215.44
2022-10-28T12:33:45.600Z,101213.34
2022-10-28T12:36:37.770Z,101211.98
2022-10-28T12:39:38.643Z,101205.08
2022-10-28T12:42:33.547Z,101194.10
2022-10-28T12:45:15.225Z,101204.41
2022-10-28T12:48:18.244Z,101204.31
2022-10-28T12:51:07.977Z,101200.41
2022-10-28T12:54:12.117Z,101203.80
2022-10-28T12:56:55.591Z,101205.08
2022-10-28T12:59:38.279Z,101203.80
2022-10-28T13:02:25.188Z,101196.06
2022-10-28T13:04:58.977Z,101201.09
2022-10-28T13:08:26.421Z,101205.20
2022-10-28T13:11:41.921Z,101202.46
2022-10-28T13:14:44.823Z,101199.72
2022-10-28T13:17:50.379Z,101200.39
2022-10-28T13:20:33.617Z,101197.59
2022-10-28T13:23:35.045Z,101197.51
2022-10-28T13:26:32.216Z,101199.17
2022-10-28T13:29:07.550Z,101201.25
2022-10-28T13:31:45.419Z,101200.55
2022-10-28T13:34:20.272Z,101197.58
2022-10-28T13:36:59.570Z,101193.97
2022-10-28T13:39:45.179Z,101199.22
2022-10-28T13:42:24.101Z,101193.19
2022-10-28T13:45:04.089Z,101196.63
2022-10-28T13:47:37.964Z,101190.67
2022-10-28T13:50:16.764Z,101190.32
2022-10-28T13:52:53.525Z,101188.43
2022-10-28T13:55:43.146Z,101191.02
2022-10-28T13:58:25.792Z,101182.83
2022-10-28T14:00:58.371Z,101189.94
2022-10-28T14:03:32.573Z,101187.05
2022-10-28T14:06:05.317Z,101184.00
2022-10-28T14:08:42.847Z,101184.80
2022-10-28T14:11:24.446Z,101186.45
2022-10-28T14:14:02.612Z,101180.77
2022-10-28T14:16:44.209Z,101186.86
2022-10-28T14:19:19.954Z,101181.33
2022-10-28T14:22:06.193Z,101181.81
2022-10-28T14:24:41.015Z,101177.98
2022-10-28T14:27:36.538Z,101177.70
2022-10-28T14:30:22.658Z,101183.58
2022-10-28T14:33:21.919Z,101182.13
2022-10-28T14:35:56.525Z,101176.99
2022-10-28T14:38:43.837Z,101176.58
2022-10-28T14:41:33.147Z,101170.65
2022-10-28T14:44:43.803Z,101171.93
2022-10-28T14:47:39.632Z,101163.52
2022-10-28T14:50:26.771Z,101173.21
2022-10-28T14:52:59.159Z,101165.29
2022-10-28T14:55:34.917Z,101169.12
2022-10-28T14:58:30.042Z,101169.86
2022-10-28T15:01:07.856Z,101172.67
2022-10-28T15:03:41.094Z,101163.83
2022-10-28T15:06:39.498Z,101162.59
2022-10-28T15:09:25.577Z,101162.11
2022-10-28T15:12:09.877Z,101162.98
2022-10-28T15:14:45.448Z,101152.91
2022-10-28T15:17:24.140Z,101164.21
2022-10-28T15:20:00.398Z,101157.73
2022-10-28T15:22:34.307Z,101155.61
2022-10-28T15:25:16.250Z,101158.70
2022-10-28T15:27:54.427Z,101156.84
2022-10-28T15:30:27.825Z,101152.88
2022-10-28T15:33:30.944Z,101154.25
2022-10-28T15:36:27.973Z,101150.86
2022-10-28T15:39:08.887Z,101151.95
2022-10-28T15:41:43.724Z,101151.81
2022-10-28T15:44:35.857Z,101143.70
2022-10-28T15:47:32.098Z,101138.31
2022-10-28T15:50:19.270Z,101137.69
2022-10-28T15:52:57.468Z,101140.14
2022-10-28T15:56:06.933Z,101138.42
2022-10-28T15:58:30.235Z,101131.59
2022-10-28T16:01:03.129Z,101125.05
2022-10-28T16:03:45.958Z,101119.92
2022-10-28T16:06:31.848Z,101116.02
2022-10-28T16:09:09.455Z,101109.74
2022-10-28T16:11:48.103Z,101103.95
2022-10-28T16:14:39.452Z,101100.05
2022-10-28T16:17:29.819Z,101098.00
2022-10-28T16:20:21.980Z,101099.83
2022-10-28T16:22:54.532Z,101099.23
2022-10-28T16:25:28.925Z,101097.34
2022-10-28T16:28:02.151Z,101098.37
2022-10-28T16:30:34.916Z,101098.15
2022-10-28T16:33:09.366Z,101100.27
2022-10-28T16:35:42.294Z,101097.45
2022-10-28T16:38:15.412Z,101092.27
2022-10-28T16:40:52.001Z,101097.01
2022-10-28T16:43:23.828Z,101094.90
2022-10-28T16:46:01.128Z,101095.16
2022-10-28T16:48:33.860Z,101087.60
2022-10-28T16:51:15.520Z,101088.61
2022-10-28T16:53:50.390Z,101094.72
2022-10-28T16:56:23.095Z,101096.21
2022-10-28T16:58:56.759Z,101087.42
2022-10-28T17:01:29.647Z,101084.60
2022-10-28T17:04:04.036Z,101087.07
2022-10-28T17:06:36.859Z,101091.33
2022-10-28T17:09:19.469Z,101084.13
2022-10-28T17:11:51.809Z,101078.31
2022-10-28T17:14:24.861Z,101072.25
2022-10-28T17:16:58.035Z,101078.70
2022-10-28T17:19:31.194Z,101069.42
2022-10-28T17:22:08.971Z,101071.44
2022-10-28T17:24:40.217Z,101072.94
2022-10-28T17:27:13.041Z,101070.70
2022-10-28T17:29:45.823Z,101063.53
2022-10-28T17:32:18.987Z,101063.14
2022-10-28T17:34:52.449Z,101060.55
2022-10-28T17:37:25.511Z,101050.16
2022-10-28T17:39:58.049Z,101051.53
2022-10-28T17:42:31.065Z,101052.02
2022-10-28T17:45:03.818Z,101054.38
2022-10-28T17:47:36.914Z,101053.28
2022-10-28T17:50:11.097Z,101054.77
2022-10-28T17:52:43.661Z,101048.45
2022-10-28T17:55:16.733Z,101057.50
2022-10-28T17:57:50.215Z,101054.42
2022-10-28T18:00:22.722Z,101054.16
2022-10-28T18:02:58.581Z,101054.29
2022-10-28T18:05:31.134Z,101048.84
2022-10-28T18:08:03.814Z,101053.45
2022-10-28T18:10:36.409Z,101050.08
2022-10-28T18:13:09.301Z,101046.86
2022-10-28T18:15:41.924Z,101044.88
2022-10-28T18:18:14.989Z,101043.97
2022-10-28T18:20:55.674Z,101043.22
